Terminal Aerodrome Forecast
Issued by NWS

Home | Current Version | Previous Version | Text Only | Print | Product List | Glossary On
Versions: 1 2 3 4 5 6 7 8 9 10 11 12 13
000
FTUS42 KMLB 131700
TAFTIX
TAF
KTIX 131736Z 1318/1418 11009KT P6SM VCTS SCT030CB SCT080 BKN250
      TEMPO 1318/1320 3SM TSRA BKN035CB OVC080
     FM140000 15005KT P6SM SCT040 BKN120=

USA.gov is the U.S. government's official web portal to all federal, state and local government web resources and services.